createdAt,value
2019-05-17T00:00:07.271Z,84.86
2019-05-17T00:10:08.334Z,83.44
2019-05-17T00:20:10.187Z,85.31
2019-05-17T00:30:11.446Z,84.88
2019-05-17T00:40:23.509Z,85.84
2019-05-17T01:12:00.084Z,84.46
2019-05-17T01:22:39.152Z,85.27
2019-05-17T01:33:16.934Z,84.90
2019-05-17T01:43:16.635Z,82.85
2019-05-17T01:53:19.735Z,83.51
2019-05-17T02:03:21.057Z,83.72
2019-05-17T02:13:23.214Z,83.34
2019-05-17T02:23:24.037Z,80.69
2019-05-17T02:43:45.713Z,82.93
2019-05-17T02:53:47.827Z,85.75
2019-05-17T03:03:52.639Z,84.45
2019-05-17T03:13:52.646Z,85.02
2019-05-17T03:23:54.202Z,84.75
2019-05-17T03:33:56.394Z,85.40
2019-05-17T03:43:57.661Z,84.86
2019-05-17T03:54:02.329Z,85.32
2019-05-17T04:04:03.308Z,85.89
2019-05-17T04:14:04.343Z,87.37
2019-05-17T04:24:05.349Z,86.30
2019-05-17T04:34:06.120Z,87.57
2019-05-17T04:44:07.086Z,87.51
2019-05-17T04:54:08.110Z,87.89
2019-05-17T05:04:09.154Z,87.55
2019-05-17T05:14:12.573Z,85.76
2019-05-17T05:24:12.936Z,81.97
2019-05-17T05:34:13.716Z,82.43
2019-05-17T05:44:14.363Z,84.09
2019-05-17T05:54:15.382Z,83.57
2019-05-17T06:04:16.135Z,81.40
2019-05-17T06:14:17.240Z,83.05
2019-05-17T06:24:18.091Z,81.82
2019-05-17T06:34:18.734Z,85.01
2019-05-17T06:44:21.592Z,85.03
2019-05-17T06:54:22.548Z,79.50
2019-05-17T07:04:23.373Z,85.31
2019-05-17T07:14:40.505Z,82.61
2019-05-17T07:35:21.521Z,83.55
2019-05-17T07:45:34.271Z,83.71
2019-05-17T08:06:31.341Z,83.25
2019-05-17T08:16:40.169Z,82.40
2019-05-17T08:26:41.475Z,81.76
2019-05-17T08:37:04.741Z,84.67
2019-05-17T08:47:07.570Z,82.69
2019-05-17T09:07:52.280Z,83.05
2019-05-17T09:17:53.213Z,84.42
2019-05-17T09:27:54.307Z,80.74
2019-05-17T09:37:55.068Z,80.72
2019-05-17T09:47:57.370Z,75.32
2019-05-17T10:50:11.817Z,77.49
2019-05-17T11:00:25.319Z,73.93
2019-05-17T11:10:32.421Z,66.79
2019-05-17T11:30:50.345Z,66.41
2019-05-17T11:40:57.934Z,70.03
2019-05-17T12:01:24.308Z,66.86
2019-05-17T12:21:59.996Z,71.14
2019-05-17T12:32:05.063Z,65.44
2019-05-17T12:42:12.090Z,67.50
2019-05-17T12:52:13.169Z,66.96
2019-05-17T13:02:14.052Z,61.41
2019-05-17T13:12:17.859Z,56.40
2019-05-17T13:22:20.625Z,57.53
2019-05-17T14:03:56.730Z,56.75
2019-05-17T14:25:53.379Z,55.01
2019-05-17T14:34:23.280Z,59.02
2019-05-17T14:55:11.468Z,59.51
2019-05-17T15:25:54.515Z,55.67
2019-05-17T15:35:55.475Z,59.48
2019-05-17T15:45:56.313Z,58.53
2019-05-17T15:55:57.039Z,54.68
2019-05-17T16:05:57.810Z,54.17
2019-05-17T16:15:58.516Z,55.21
2019-05-17T16:25:59.436Z,56.96
2019-05-17T16:36:00.152Z,56.44
2019-05-17T16:46:00.846Z,59.07
2019-05-17T16:56:01.796Z,58.50
2019-05-17T17:06:02.723Z,58.12
2019-05-17T17:16:03.738Z,56.69
2019-05-17T17:26:04.652Z,57.20
2019-05-17T17:36:05.392Z,57.60
2019-05-17T17:46:06.709Z,58.82
2019-05-17T17:56:07.447Z,57.83
2019-05-17T18:06:08.483Z,56.81
2019-05-17T18:16:09.448Z,57.91
2019-05-17T18:26:10.373Z,57.63
2019-05-17T18:36:11.200Z,58.24
2019-05-17T18:46:12.229Z,60.63
2019-05-17T18:56:13.238Z,64.46
2019-05-17T19:06:14.210Z,67.11
2019-05-17T19:16:14.978Z,70.95
2019-05-17T19:26:15.718Z,70.45
2019-05-17T19:36:16.750Z,69.63
2019-05-17T19:46:17.570Z,68.92
2019-05-17T19:56:18.254Z,68.91
2019-05-17T20:06:23.466Z,70.75
2019-05-17T20:16:24.294Z,71.47
2019-05-17T20:26:25.120Z,72.20
2019-05-17T20:36:28.754Z,73.02
2019-05-17T20:46:30.679Z,72.05
2019-05-17T20:56:33.293Z,72.11
2019-05-17T21:06:34.170Z,72.06
2019-05-17T21:16:34.956Z,73.07
2019-05-17T21:26:35.902Z,73.62
2019-05-17T21:36:36.690Z,74.02
2019-05-17T21:46:37.656Z,74.99
2019-05-17T21:56:38.421Z,75.23
2019-05-17T22:06:39.233Z,73.51
2019-05-17T22:16:40.286Z,73.64
2019-05-17T22:26:40.970Z,76.76
2019-05-17T22:36:42.131Z,75.92
2019-05-17T22:46:44.847Z,84.17
2019-05-17T22:56:45.944Z,77.26
2019-05-17T23:06:47.099Z,74.76
2019-05-17T23:16:51.520Z,75.02
2019-05-17T23:26:50.523Z,77.17
2019-05-17T23:36:51.507Z,84.59
2019-05-17T23:47:06.258Z,78.71
2019-05-17T23:56:55.269Z,79.46
